sensor_id;sensor_type;location;lat;lon;timestamp;P1;durP1;ratioP1;P2;durP2;ratioP2
19535;SDS011;9913;51.168;4.124;2022-08-01T00:01:31;12.82;;;6.32;;
19535;SDS011;9913;51.168;4.124;2022-08-01T00:04:01;8.50;;;4.95;;
19535;SDS011;9913;51.168;4.124;2022-08-01T00:06:30;7.88;;;5.55;;
19535;SDS011;9913;51.168;4.124;2022-08-01T00:08:59;8.48;;;5.30;;
19535;SDS011;9913;51.168;4.124;2022-08-01T00:11:27;9.13;;;5.00;;
19535;SDS011;9913;51.168;4.124;2022-08-01T00:13:56;9.80;;;4.60;;
19535;SDS011;9913;51.168;4.124;2022-08-01T00:16:24;7.85;;;4.72;;
19535;SDS011;9913;51.168;4.124;2022-08-01T00:18:52;7.07;;;4.45;;
19535;SDS011;9913;51.168;4.124;2022-08-01T00:21:23;7.65;;;4.82;;
19535;SDS011;9913;51.168;4.124;2022-08-01T00:23:51;6.18;;;4.75;;
19535;SDS011;9913;51.168;4.124;2022-08-01T00:26:19;10.85;;;5.55;;
19535;SDS011;9913;51.168;4.124;2022-08-01T00:28:48;7.38;;;4.75;;
19535;SDS011;9913;51.168;4.124;2022-08-01T00:31:16;7.63;;;5.32;;
19535;SDS011;9913;51.168;4.124;2022-08-01T00:33:46;8.77;;;5.80;;
19535;SDS011;9913;51.168;4.124;2022-08-01T00:36:15;7.55;;;5.28;;
19535;SDS011;9913;51.168;4.124;2022-08-01T00:38:45;9.52;;;6.40;;
19535;SDS011;9913;51.168;4.124;2022-08-01T00:41:13;10.93;;;6.93;;
19535;SDS011;9913;51.168;4.124;2022-08-01T00:43:41;13.75;;;7.88;;
19535;SDS011;9913;51.168;4.124;2022-08-01T00:46:09;10.48;;;7.10;;
19535;SDS011;9913;51.168;4.124;2022-08-01T00:48:39;9.95;;;7.20;;
19535;SDS011;9913;51.168;4.124;2022-08-01T00:51:10;10.38;;;7.40;;
19535;SDS011;9913;51.168;4.124;2022-08-01T00:53:38;10.13;;;6.90;;
19535;SDS011;9913;51.168;4.124;2022-08-01T00:56:20;10.80;;;7.45;;
19535;SDS011;9913;51.168;4.124;2022-08-01T00:58:49;11.82;;;7.78;;
19535;SDS011;9913;51.168;4.124;2022-08-01T01:01:18;12.18;;;8.35;;
19535;SDS011;9913;51.168;4.124;2022-08-01T01:03:48;16.27;;;9.52;;
19535;SDS011;9913;51.168;4.124;2022-08-01T01:06:27;13.15;;;9.00;;
19535;SDS011;9913;51.168;4.124;2022-08-01T01:09:11;14.52;;;9.10;;
19535;SDS011;9913;51.168;4.124;2022-08-01T01:11:47;11.55;;;7.72;;
19535;SDS011;9913;51.168;4.124;2022-08-01T01:14:23;13.48;;;8.15;;
19535;SDS011;9913;51.168;4.124;2022-08-01T01:16:58;12.88;;;8.85;;
19535;SDS011;9913;51.168;4.124;2022-08-01T01:19:30;16.88;;;9.15;;
19535;SDS011;9913;51.168;4.124;2022-08-01T01:25:08;15.85;;;9.80;;
19535;SDS011;9913;51.168;4.124;2022-08-01T01:27:46;21.85;;;11.68;;
19535;SDS011;9913;51.168;4.124;2022-08-01T01:30:20;20.52;;;11.57;;
19535;SDS011;9913;51.168;4.124;2022-08-01T01:32:51;19.35;;;12.05;;
19535;SDS011;9913;51.168;4.124;2022-08-01T01:35:22;21.60;;;12.88;;
19535;SDS011;9913;51.168;4.124;2022-08-01T01:37:56;23.35;;;13.70;;
19535;SDS011;9913;51.168;4.124;2022-08-01T01:40:29;23.15;;;13.48;;
19535;SDS011;9913;51.168;4.124;2022-08-01T01:42:58;25.25;;;14.90;;
19535;SDS011;9913;51.168;4.124;2022-08-01T01:45:31;26.45;;;14.63;;
19535;SDS011;9913;51.168;4.124;2022-08-01T01:48:00;27.83;;;14.65;;
19535;SDS011;9913;51.168;4.124;2022-08-01T01:50:32;18.48;;;11.60;;
19535;SDS011;9913;51.168;4.124;2022-08-01T01:53:01;13.55;;;8.10;;
19535;SDS011;9913;51.168;4.124;2022-08-01T01:55:31;10.25;;;6.22;;
19535;SDS011;9913;51.168;4.124;2022-08-01T01:58:16;14.02;;;6.43;;
19535;SDS011;9913;51.168;4.124;2022-08-01T02:00:48;10.95;;;6.53;;
19535;SDS011;9913;51.168;4.124;2022-08-01T02:03:18;16.95;;;8.07;;
19535;SDS011;9913;51.168;4.124;2022-08-01T02:05:47;10.73;;;6.50;;
19535;SDS011;9913;51.168;4.124;2022-08-01T02:08:17;11.50;;;5.70;;
19535;SDS011;9913;51.168;4.124;2022-08-01T02:10:46;11.80;;;6.00;;
19535;SDS011;9913;51.168;4.124;2022-08-01T02:13:30;11.82;;;6.32;;
19535;SDS011;9913;51.168;4.124;2022-08-01T02:16:00;9.52;;;5.97;;
19535;SDS011;9913;51.168;4.124;2022-08-01T02:18:30;14.95;;;7.70;;
19535;SDS011;9913;51.168;4.124;2022-08-01T02:21:00;13.05;;;7.97;;
19535;SDS011;9913;51.168;4.124;2022-08-01T02:23:33;10.15;;;7.45;;
19535;SDS011;9913;51.168;4.124;2022-08-01T02:26:05;11.43;;;6.68;;
19535;SDS011;9913;51.168;4.124;2022-08-01T02:28:41;10.10;;;6.07;;
19535;SDS011;9913;51.168;4.124;2022-08-01T02:31:20;9.00;;;6.22;;
19535;SDS011;9913;51.168;4.124;2022-08-01T02:33:52;12.32;;;6.60;;
19535;SDS011;9913;51.168;4.124;2022-08-01T02:36:25;10.13;;;6.57;;
19535;SDS011;9913;51.168;4.124;2022-08-01T02:38:59;11.05;;;7.32;;
19535;SDS011;9913;51.168;4.124;2022-08-01T02:41:30;12.88;;;6.95;;
19535;SDS011;9913;51.168;4.124;2022-08-01T02:44:02;11.07;;;6.60;;
19535;SDS011;9913;51.168;4.124;2022-08-01T02:46:34;10.43;;;7.00;;
19535;SDS011;9913;51.168;4.124;2022-08-01T02:49:06;13.55;;;8.30;;
19535;SDS011;9913;51.168;4.124;2022-08-01T02:51:37;11.43;;;7.05;;
19535;SDS011;9913;51.168;4.124;2022-08-01T02:54:07;13.60;;;7.97;;
19535;SDS011;9913;51.168;4.124;2022-08-01T02:56:37;12.57;;;7.75;;
19535;SDS011;9913;51.168;4.124;2022-08-01T02:59:08;12.65;;;7.22;;
19535;SDS011;9913;51.168;4.124;2022-08-01T03:01:41;11.93;;;7.88;;
19535;SDS011;9913;51.168;4.124;2022-08-01T03:04:13;10.48;;;7.55;;
19535;SDS011;9913;51.168;4.124;2022-08-01T03:06:44;11.65;;;7.97;;
19535;SDS011;9913;51.168;4.124;2022-08-01T03:09:14;14.27;;;8.70;;
19535;SDS011;9913;51.168;4.124;2022-08-01T03:11:44;13.35;;;8.07;;
19535;SDS011;9913;51.168;4.124;2022-08-01T03:14:14;13.45;;;7.80;;
19535;SDS011;9913;51.168;4.124;2022-08-01T03:16:45;11.70;;;7.35;;
19535;SDS011;9913;51.168;4.124;2022-08-01T03:19:14;15.13;;;8.00;;
19535;SDS011;9913;51.168;4.124;2022-08-01T03:21:45;12.60;;;7.65;;
19535;SDS011;9913;51.168;4.124;2022-08-01T03:24:16;10.77;;;7.47;;
19535;SDS011;9913;51.168;4.124;2022-08-01T03:26:46;9.85;;;7.03;;
19535;SDS011;9913;51.168;4.124;2022-08-01T03:29:16;12.70;;;7.93;;
19535;SDS011;9913;51.168;4.124;2022-08-01T03:31:50;10.32;;;6.57;;
19535;SDS011;9913;51.168;4.124;2022-08-01T03:34:20;11.15;;;6.82;;
19535;SDS011;9913;51.168;4.124;2022-08-01T03:36:53;10.25;;;6.68;;
19535;SDS011;9913;51.168;4.124;2022-08-01T03:39:28;8.95;;;6.28;;
19535;SDS011;9913;51.168;4.124;2022-08-01T03:42:01;11.60;;;7.88;;
19535;SDS011;9913;51.168;4.124;2022-08-01T03:44:33;10.13;;;7.13;;
19535;SDS011;9913;51.168;4.124;2022-08-01T03:47:07;11.75;;;7.35;;
19535;SDS011;9913;51.168;4.124;2022-08-01T03:49:40;9.93;;;7.07;;
19535;SDS011;9913;51.168;4.124;2022-08-01T03:52:10;11.95;;;7.50;;
19535;SDS011;9913;51.168;4.124;2022-08-01T03:54:41;13.07;;;6.80;;
19535;SDS011;9913;51.168;4.124;2022-08-01T03:57:13;9.82;;;7.30;;
19535;SDS011;9913;51.168;4.124;2022-08-01T04:00:03;9.35;;;6.00;;
19535;SDS011;9913;51.168;4.124;2022-08-01T04:02:39;12.88;;;6.55;;
19535;SDS011;9913;51.168;4.124;2022-08-01T04:05:09;11.30;;;6.47;;
19535;SDS011;9913;51.168;4.124;2022-08-01T04:07:38;10.27;;;6.22;;
19535;SDS011;9913;51.168;4.124;2022-08-01T04:10:09;13.48;;;6.63;;
19535;SDS011;9913;51.168;4.124;2022-08-01T04:12:38;10.32;;;6.10;;
19535;SDS011;9913;51.168;4.124;2022-08-01T04:15:07;10.10;;;6.75;;
19535;SDS011;9913;51.168;4.124;2022-08-01T04:17:36;10.18;;;6.38;;
19535;SDS011;9913;51.168;4.124;2022-08-01T04:20:06;11.75;;;6.57;;
19535;SDS011;9913;51.168;4.124;2022-08-01T04:22:36;10.15;;;6.47;;
19535;SDS011;9913;51.168;4.124;2022-08-01T04:25:09;11.80;;;6.38;;
19535;SDS011;9913;51.168;4.124;2022-08-01T04:27:42;12.30;;;5.68;;
19535;SDS011;9913;51.168;4.124;2022-08-01T04:30:17;9.82;;;5.82;;
19535;SDS011;9913;51.168;4.124;2022-08-01T04:32:48;10.38;;;5.97;;
19535;SDS011;9913;51.168;4.124;2022-08-01T04:35:22;8.00;;;5.60;;
19535;SDS011;9913;51.168;4.124;2022-08-01T04:38:13;9.48;;;5.90;;
19535;SDS011;9913;51.168;4.124;2022-08-01T04:40:45;8.80;;;5.82;;
19535;SDS011;9913;51.168;4.124;2022-08-01T04:43:14;9.05;;;5.45;;
19535;SDS011;9913;51.168;4.124;2022-08-01T04:45:42;9.20;;;5.40;;
19535;SDS011;9913;51.168;4.124;2022-08-01T04:48:12;9.50;;;5.32;;
19535;SDS011;9913;51.168;4.124;2022-08-01T04:50:43;8.70;;;5.00;;
19535;SDS011;9913;51.168;4.124;2022-08-01T04:53:13;6.68;;;4.70;;
19535;SDS011;9913;51.168;4.124;2022-08-01T04:55:44;6.28;;;4.25;;
19535;SDS011;9913;51.168;4.124;2022-08-01T04:58:13;8.43;;;4.80;;
19535;SDS011;9913;51.168;4.124;2022-08-01T05:00:44;6.97;;;4.57;;
19535;SDS011;9913;51.168;4.124;2022-08-01T05:03:15;7.40;;;4.40;;
19535;SDS011;9913;51.168;4.124;2022-08-01T05:05:45;6.78;;;4.63;;
19535;SDS011;9913;51.168;4.124;2022-08-01T05:08:13;5.13;;;3.60;;
19535;SDS011;9913;51.168;4.124;2022-08-01T05:10:42;6.25;;;4.20;;
19535;SDS011;9913;51.168;4.124;2022-08-01T05:13:11;5.75;;;3.60;;
19535;SDS011;9913;51.168;4.124;2022-08-01T05:15:39;5.95;;;4.05;;
19535;SDS011;9913;51.168;4.124;2022-08-01T05:18:07;5.50;;;3.30;;
19535;SDS011;9913;51.168;4.124;2022-08-01T05:20:36;4.15;;;2.90;;
19535;SDS011;9913;51.168;4.124;2022-08-01T05:23:06;4.43;;;2.60;;
19535;SDS011;9913;51.168;4.124;2022-08-01T05:25:36;5.10;;;2.50;;
19535;SDS011;9913;51.168;4.124;2022-08-01T05:28:23;6.22;;;3.10;;
19535;SDS011;9913;51.168;4.124;2022-08-01T05:30:52;4.85;;;2.80;;
19535;SDS011;9913;51.168;4.124;2022-08-01T05:33:21;4.38;;;2.53;;
19535;SDS011;9913;51.168;4.124;2022-08-01T05:35:50;4.93;;;2.60;;
19535;SDS011;9913;51.168;4.124;2022-08-01T05:38:20;3.53;;;2.53;;
19535;SDS011;9913;51.168;4.124;2022-08-01T05:40:48;4.20;;;2.20;;
19535;SDS011;9913;51.168;4.124;2022-08-01T05:43:16;4.20;;;2.08;;
19535;SDS011;9913;51.168;4.124;2022-08-01T05:45:44;6.65;;;2.40;;
19535;SDS011;9913;51.168;4.124;2022-08-01T05:48:13;6.53;;;2.80;;
19535;SDS011;9913;51.168;4.124;2022-08-01T05:50:42;4.28;;;2.30;;
19535;SDS011;9913;51.168;4.124;2022-08-01T05:53:10;3.30;;;2.05;;
19535;SDS011;9913;51.168;4.124;2022-08-01T05:55:40;2.63;;;2.10;;
19535;SDS011;9913;51.168;4.124;2022-08-01T05:58:08;4.63;;;1.90;;
19535;SDS011;9913;51.168;4.124;2022-08-01T06:00:38;3.28;;;2.00;;
19535;SDS011;9913;51.168;4.124;2022-08-01T06:03:06;3.10;;;2.03;;
19535;SDS011;9913;51.168;4.124;2022-08-01T06:05:35;2.53;;;1.70;;
19535;SDS011;9913;51.168;4.124;2022-08-01T06:08:03;4.60;;;1.70;;
19535;SDS011;9913;51.168;4.124;2022-08-01T06:10:31;3.25;;;2.03;;
19535;SDS011;9913;51.168;4.124;2022-08-01T06:13:01;2.70;;;1.90;;
19535;SDS011;9913;51.168;4.124;2022-08-01T06:15:30;2.70;;;1.40;;
19535;SDS011;9913;51.168;4.124;2022-08-01T06:18:01;2.78;;;1.50;;
19535;SDS011;9913;51.168;4.124;2022-08-01T06:20:30;2.10;;;1.52;;
19535;SDS011;9913;51.168;4.124;2022-08-01T06:22:58;1.95;;;1.35;;
19535;SDS011;9913;51.168;4.124;2022-08-01T06:25:39;2.30;;;1.52;;
19535;SDS011;9913;51.168;4.124;2022-08-01T06:28:08;2.83;;;1.70;;
19535;SDS011;9913;51.168;4.124;2022-08-01T06:30:37;2.85;;;1.48;;
19535;SDS011;9913;51.168;4.124;2022-08-01T06:33:05;4.20;;;1.55;;
19535;SDS011;9913;51.168;4.124;2022-08-01T06:35:36;2.83;;;0.98;;
19535;SDS011;9913;51.168;4.124;2022-08-01T06:38:05;2.63;;;1.33;;
19535;SDS011;9913;51.168;4.124;2022-08-01T06:40:33;2.75;;;1.40;;
19535;SDS011;9913;51.168;4.124;2022-08-01T06:43:02;1.85;;;1.10;;
19535;SDS011;9913;51.168;4.124;2022-08-01T06:45:31;1.70;;;1.13;;
19535;SDS011;9913;51.168;4.124;2022-08-01T06:48:00;1.48;;;1.10;;
19535;SDS011;9913;51.168;4.124;2022-08-01T06:50:28;2.30;;;1.05;;
19535;SDS011;9913;51.168;4.124;2022-08-01T06:52:56;7.00;;;1.70;;
19535;SDS011;9913;51.168;4.124;2022-08-01T06:55:25;2.22;;;1.00;;
19535;SDS011;9913;51.168;4.124;2022-08-01T06:57:53;1.15;;;0.80;;
19535;SDS011;9913;51.168;4.124;2022-08-01T07:00:22;1.20;;;0.90;;
19535;SDS011;9913;51.168;4.124;2022-08-01T07:02:54;1.40;;;0.90;;
19535;SDS011;9913;51.168;4.124;2022-08-01T07:05:23;1.48;;;0.80;;
19535;SDS011;9913;51.168;4.124;2022-08-01T07:07:52;4.35;;;0.95;;
19535;SDS011;9913;51.168;4.124;2022-08-01T07:10:20;1.65;;;0.93;;
19535;SDS011;9913;51.168;4.124;2022-08-01T07:12:49;1.42;;;0.82;;
19535;SDS011;9913;51.168;4.124;2022-08-01T07:15:18;2.30;;;0.75;;
19535;SDS011;9913;51.168;4.124;2022-08-01T07:17:48;1.20;;;0.70;;
19535;SDS011;9913;51.168;4.124;2022-08-01T07:20:18;0.80;;;0.60;;
19535;SDS011;9913;51.168;4.124;2022-08-01T07:22:47;2.72;;;0.65;;
19535;SDS011;9913;51.168;4.124;2022-08-01T07:25:16;0.65;;;0.65;;
19535;SDS011;9913;51.168;4.124;2022-08-01T07:27:44;1.00;;;0.63;;
19535;SDS011;9913;51.168;4.124;2022-08-01T07:30:13;1.23;;;0.70;;
19535;SDS011;9913;51.168;4.124;2022-08-01T07:32:41;0.75;;;0.70;;
19535;SDS011;9913;51.168;4.124;2022-08-01T07:35:10;0.93;;;0.63;;
19535;SDS011;9913;51.168;4.124;2022-08-01T07:37:39;0.57;;;0.50;;
19535;SDS011;9913;51.168;4.124;2022-08-01T07:40:15;3.10;;;1.08;;
19535;SDS011;9913;51.168;4.124;2022-08-01T07:42:45;1.17;;;0.75;;
19535;SDS011;9913;51.168;4.124;2022-08-01T07:45:14;0.60;;;0.60;;
19535;SDS011;9913;51.168;4.124;2022-08-01T07:47:42;2.67;;;0.77;;
19535;SDS011;9913;51.168;4.124;2022-08-01T07:50:12;0.63;;;0.50;;
19535;SDS011;9913;51.168;4.124;2022-08-01T07:52:41;1.23;;;0.57;;
19535;SDS011;9913;51.168;4.124;2022-08-01T07:55:10;1.95;;;0.95;;
19535;SDS011;9913;51.168;4.124;2022-08-01T07:57:42;1.08;;;0.70;;
19535;SDS011;9913;51.168;4.124;2022-08-01T08:00:11;1.52;;;0.70;;
19535;SDS011;9913;51.168;4.124;2022-08-01T08:02:40;1.08;;;0.80;;
19535;SDS011;9913;51.168;4.124;2022-08-01T08:05:09;2.75;;;0.80;;
19535;SDS011;9913;51.168;4.124;2022-08-01T08:07:38;1.15;;;0.82;;
19535;SDS011;9913;51.168;4.124;2022-08-01T08:10:08;2.65;;;1.00;;
19535;SDS011;9913;51.168;4.124;2022-08-01T08:12:37;1.00;;;0.70;;
19535;SDS011;9913;51.168;4.124;2022-08-01T08:15:05;1.20;;;0.77;;
19535;SDS011;9913;51.168;4.124;2022-08-01T08:17:35;1.55;;;0.90;;
19535;SDS011;9913;51.168;4.124;2022-08-01T08:20:04;3.30;;;0.95;;
19535;SDS011;9913;51.168;4.124;2022-08-01T08:22:35;1.33;;;1.00;;
19535;SDS011;9913;51.168;4.124;2022-08-01T08:25:05;1.73;;;1.05;;
19535;SDS011;9913;51.168;4.124;2022-08-01T08:27:36;1.55;;;0.85;;
19535;SDS011;9913;51.168;4.124;2022-08-01T08:30:05;1.80;;;1.00;;
19535;SDS011;9913;51.168;4.124;2022-08-01T08:32:35;2.47;;;1.13;;
19535;SDS011;9913;51.168;4.124;2022-08-01T08:35:04;4.22;;;1.42;;
19535;SDS011;9913;51.168;4.124;2022-08-01T08:37:37;1.60;;;1.00;;
19535;SDS011;9913;51.168;4.124;2022-08-01T08:40:14;2.72;;;1.13;;
19535;SDS011;9913;51.168;4.124;2022-08-01T08:42:45;2.17;;;1.20;;
19535;SDS011;9913;51.168;4.124;2022-08-01T08:45:14;3.03;;;1.40;;
19535;SDS011;9913;51.168;4.124;2022-08-01T08:47:42;6.20;;;2.03;;
19535;SDS011;9913;51.168;4.124;2022-08-01T08:50:13;2.53;;;1.30;;
19535;SDS011;9913;51.168;4.124;2022-08-01T08:52:42;5.43;;;1.35;;
19535;SDS011;9913;51.168;4.124;2022-08-01T08:55:12;2.95;;;1.30;;
19535;SDS011;9913;51.168;4.124;2022-08-01T08:57:42;2.42;;;1.15;;
19535;SDS011;9913;51.168;4.124;2022-08-01T09:00:13;2.60;;;1.50;;
19535;SDS011;9913;51.168;4.124;2022-08-01T09:02:43;2.00;;;1.10;;
19535;SDS011;9913;51.168;4.124;2022-08-01T09:05:13;2.65;;;1.35;;
19535;SDS011;9913;51.168;4.124;2022-08-01T09:07:45;2.33;;;1.15;;
19535;SDS011;9913;51.168;4.124;2022-08-01T09:10:13;3.63;;;1.38;;
19535;SDS011;9913;51.168;4.124;2022-08-01T09:15:38;2.78;;;1.05;;
19535;SDS011;9913;51.168;4.124;2022-08-01T09:18:27;2.70;;;1.30;;
19535;SDS011;9913;51.168;4.124;2022-08-01T09:21:10;1.77;;;0.93;;
19535;SDS011;9913;51.168;4.124;2022-08-01T09:23:41;2.63;;;1.20;;
19535;SDS011;9913;51.168;4.124;2022-08-01T09:26:21;3.00;;;1.10;;
19535;SDS011;9913;51.168;4.124;2022-08-01T09:28:58;2.20;;;0.95;;
19535;SDS011;9913;51.168;4.124;2022-08-01T09:31:28;1.90;;;0.90;;
19535;SDS011;9913;51.168;4.124;2022-08-01T09:34:04;2.95;;;1.30;;
19535;SDS011;9913;51.168;4.124;2022-08-01T09:36:44;1.67;;;1.20;;
19535;SDS011;9913;51.168;4.124;2022-08-01T09:39:21;2.20;;;1.13;;
19535;SDS011;9913;51.168;4.124;2022-08-01T09:41:51;1.05;;;0.88;;
19535;SDS011;9913;51.168;4.124;2022-08-01T09:44:37;1.67;;;0.70;;
19535;SDS011;9913;51.168;4.124;2022-08-01T09:47:10;1.73;;;1.08;;
19535;SDS011;9913;51.168;4.124;2022-08-01T09:49:41;1.85;;;1.17;;
19535;SDS011;9913;51.168;4.124;2022-08-01T09:52:18;3.38;;;1.17;;
19535;SDS011;9913;51.168;4.124;2022-08-01T09:54:52;1.85;;;0.98;;
19535;SDS011;9913;51.168;4.124;2022-08-01T09:57:22;3.10;;;0.93;;
19535;SDS011;9913;51.168;4.124;2022-08-01T09:59:53;1.70;;;1.00;;
19535;SDS011;9913;51.168;4.124;2022-08-01T10:02:28;3.83;;;1.00;;
19535;SDS011;9913;51.168;4.124;2022-08-01T10:05:00;2.25;;;0.80;;
19535;SDS011;9913;51.168;4.124;2022-08-01T10:07:35;2.13;;;0.88;;
19535;SDS011;9913;51.168;4.124;2022-08-01T10:10:10;1.30;;;0.90;;
19535;SDS011;9913;51.168;4.124;2022-08-01T10:12:40;3.47;;;0.73;;
19535;SDS011;9913;51.168;4.124;2022-08-01T10:15:13;2.00;;;0.98;;
19535;SDS011;9913;51.168;4.124;2022-08-01T10:17:46;1.27;;;0.80;;
19535;SDS011;9913;51.168;4.124;2022-08-01T10:20:23;1.88;;;0.93;;
19535;SDS011;9913;51.168;4.124;2022-08-01T10:22:58;3.45;;;0.98;;
19535;SDS011;9913;51.168;4.124;2022-08-01T10:25:34;3.75;;;1.10;;
19535;SDS011;9913;51.168;4.124;2022-08-01T10:28:11;1.80;;;0.90;;
19535;SDS011;9913;51.168;4.124;2022-08-01T10:30:45;2.75;;;0.98;;
19535;SDS011;9913;51.168;4.124;2022-08-01T10:33:15;2.10;;;1.10;;
19535;SDS011;9913;51.168;4.124;2022-08-01T10:36:05;2.17;;;0.90;;
19535;SDS011;9913;51.168;4.124;2022-08-01T10:38:34;1.33;;;0.77;;
19535;SDS011;9913;51.168;4.124;2022-08-01T10:41:03;1.40;;;1.00;;
19535;SDS011;9913;51.168;4.124;2022-08-01T10:43:34;2.88;;;0.85;;
19535;SDS011;9913;51.168;4.124;2022-08-01T10:46:04;2.65;;;1.00;;
19535;SDS011;9913;51.168;4.124;2022-08-01T10:48:47;2.58;;;0.98;;
19535;SDS011;9913;51.168;4.124;2022-08-01T10:51:21;2.42;;;1.00;;
19535;SDS011;9913;51.168;4.124;2022-08-01T10:54:10;1.90;;;0.98;;
19535;SDS011;9913;51.168;4.124;2022-08-01T10:56:42;1.60;;;1.00;;
19535;SDS011;9913;51.168;4.124;2022-08-01T10:59:14;2.97;;;1.05;;
19535;SDS011;9913;51.168;4.124;2022-08-01T11:02:09;1.10;;;0.80;;
19535;SDS011;9913;51.168;4.124;2022-08-01T11:04:48;2.90;;;1.00;;
19535;SDS011;9913;51.168;4.124;2022-08-01T11:07:23;1.83;;;0.70;;
19535;SDS011;9913;51.168;4.124;2022-08-01T11:10:03;1.95;;;1.10;;
19535;SDS011;9913;51.168;4.124;2022-08-01T11:12:41;2.20;;;0.90;;
19535;SDS011;9913;51.168;4.124;2022-08-01T11:15:17;2.05;;;1.05;;
19535;SDS011;9913;51.168;4.124;2022-08-01T11:17:58;2.03;;;1.10;;
19535;SDS011;9913;51.168;4.124;2022-08-01T11:20:29;1.50;;;1.13;;
19535;SDS011;9913;51.168;4.124;2022-08-01T11:26:07;2.97;;;1.08;;
19535;SDS011;9913;51.168;4.124;2022-08-01T11:28:37;1.35;;;0.90;;
19535;SDS011;9913;51.168;4.124;2022-08-01T11:31:28;1.52;;;1.02;;
19535;SDS011;9913;51.168;4.124;2022-08-01T11:34:05;2.72;;;1.25;;
19535;SDS011;9913;51.168;4.124;2022-08-01T11:36:34;2.63;;;1.17;;
19535;SDS011;9913;51.168;4.124;2022-08-01T11:39:22;2.13;;;0.82;;
19535;SDS011;9913;51.168;4.124;2022-08-01T11:41:51;1.60;;;0.98;;
19535;SDS011;9913;51.168;4.124;2022-08-01T11:44:22;1.85;;;1.10;;
19535;SDS011;9913;51.168;4.124;2022-08-01T11:46:57;4.43;;;1.13;;
19535;SDS011;9913;51.168;4.124;2022-08-01T11:52:17;3.00;;;1.02;;
19535;SDS011;9913;51.168;4.124;2022-08-01T11:54:48;2.40;;;0.70;;
19535;SDS011;9913;51.168;4.124;2022-08-01T11:57:18;1.45;;;0.80;;
19535;SDS011;9913;51.168;4.124;2022-08-01T12:00:02;2.60;;;0.82;;
19535;SDS011;9913;51.168;4.124;2022-08-01T12:02:40;1.95;;;0.90;;
19535;SDS011;9913;51.168;4.124;2022-08-01T12:05:13;1.73;;;1.10;;
19535;SDS011;9913;51.168;4.124;2022-08-01T12:07:44;1.33;;;0.80;;
19535;SDS011;9913;51.168;4.124;2022-08-01T12:10:18;3.10;;;1.02;;
19535;SDS011;9913;51.168;4.124;2022-08-01T12:12:48;2.80;;;0.80;;
19535;SDS011;9913;51.168;4.124;2022-08-01T12:15:18;2.47;;;0.90;;
19535;SDS011;9913;51.168;4.124;2022-08-01T12:17:49;3.00;;;0.90;;
19535;SDS011;9913;51.168;4.124;2022-08-01T12:20:27;1.33;;;0.90;;
19535;SDS011;9913;51.168;4.124;2022-08-01T12:22:58;1.95;;;0.88;;
19535;SDS011;9913;51.168;4.124;2022-08-01T12:25:28;1.50;;;0.90;;
19535;SDS011;9913;51.168;4.124;2022-08-01T12:27:59;1.52;;;0.80;;
19535;SDS011;9913;51.168;4.124;2022-08-01T12:30:29;1.50;;;0.90;;
19535;SDS011;9913;51.168;4.124;2022-08-01T12:33:02;3.05;;;1.45;;
19535;SDS011;9913;51.168;4.124;2022-08-01T12:35:33;0.98;;;0.88;;
19535;SDS011;9913;51.168;4.124;2022-08-01T12:38:03;1.33;;;0.77;;
19535;SDS011;9913;51.168;4.124;2022-08-01T12:40:33;2.17;;;0.95;;
19535;SDS011;9913;51.168;4.124;2022-08-01T12:43:09;1.00;;;0.80;;
19535;SDS011;9913;51.168;4.124;2022-08-01T12:45:54;1.45;;;1.02;;
19535;SDS011;9913;51.168;4.124;2022-08-01T12:48:24;2.05;;;0.85;;
19535;SDS011;9913;51.168;4.124;2022-08-01T12:50:54;0.95;;;0.80;;
19535;SDS011;9913;51.168;4.124;2022-08-01T12:53:27;1.95;;;0.65;;
19535;SDS011;9913;51.168;4.124;2022-08-01T12:56:11;1.58;;;0.70;;
19535;SDS011;9913;51.168;4.124;2022-08-01T12:58:45;1.27;;;1.10;;
19535;SDS011;9913;51.168;4.124;2022-08-01T13:01:15;2.38;;;1.23;;
19535;SDS011;9913;51.168;4.124;2022-08-01T13:03:58;2.53;;;1.10;;
19535;SDS011;9913;51.168;4.124;2022-08-01T13:06:29;2.10;;;1.00;;
19535;SDS011;9913;51.168;4.124;2022-08-01T13:09:04;2.00;;;1.00;;
19535;SDS011;9913;51.168;4.124;2022-08-01T13:11:33;1.00;;;0.77;;
19535;SDS011;9913;51.168;4.124;2022-08-01T13:14:01;1.02;;;0.80;;
19535;SDS011;9913;51.168;4.124;2022-08-01T13:16:29;3.17;;;0.82;;
19535;SDS011;9913;51.168;4.124;2022-08-01T13:19:18;2.95;;;1.00;;
19535;SDS011;9913;51.168;4.124;2022-08-01T13:21:57;2.15;;;1.00;;
19535;SDS011;9913;51.168;4.124;2022-08-01T13:24:26;1.33;;;0.80;;
19535;SDS011;9913;51.168;4.124;2022-08-01T13:26:56;1.27;;;0.90;;
19535;SDS011;9913;51.168;4.124;2022-08-01T13:29:31;2.55;;;1.25;;
19535;SDS011;9913;51.168;4.124;2022-08-01T13:32:01;2.22;;;0.82;;
19535;SDS011;9913;51.168;4.124;2022-08-01T13:35:02;1.42;;;1.10;;
19535;SDS011;9913;51.168;4.124;2022-08-01T13:37:33;2.45;;;0.90;;
19535;SDS011;9913;51.168;4.124;2022-08-01T13:40:04;1.95;;;0.90;;
19535;SDS011;9913;51.168;4.124;2022-08-01T13:42:34;2.45;;;0.90;;
19535;SDS011;9913;51.168;4.124;2022-08-01T13:45:04;2.97;;;0.90;;
19535;SDS011;9913;51.168;4.124;2022-08-01T13:47:40;2.80;;;0.90;;
19535;SDS011;9913;51.168;4.124;2022-08-01T13:50:28;1.77;;;0.95;;
19535;SDS011;9913;51.168;4.124;2022-08-01T13:52:58;1.23;;;0.88;;
19535;SDS011;9913;51.168;4.124;2022-08-01T13:55:27;1.10;;;0.88;;
19535;SDS011;9913;51.168;4.124;2022-08-01T13:58:00;1.88;;;1.00;;
19535;SDS011;9913;51.168;4.124;2022-08-01T14:00:29;2.58;;;0.90;;
19535;SDS011;9913;51.168;4.124;2022-08-01T14:02:58;2.67;;;0.98;;
19535;SDS011;9913;51.168;4.124;2022-08-01T14:05:26;3.05;;;0.90;;
19535;SDS011;9913;51.168;4.124;2022-08-01T14:07:54;1.73;;;0.90;;
19535;SDS011;9913;51.168;4.124;2022-08-01T14:10:25;4.05;;;1.08;;
19535;SDS011;9913;51.168;4.124;2022-08-01T14:12:54;1.85;;;1.00;;
19535;SDS011;9913;51.168;4.124;2022-08-01T14:15:23;1.08;;;0.63;;
19535;SDS011;9913;51.168;4.124;2022-08-01T14:18:05;1.42;;;0.70;;
19535;SDS011;9913;51.168;4.124;2022-08-01T14:20:38;1.15;;;0.80;;
19535;SDS011;9913;51.168;4.124;2022-08-01T14:23:09;1.58;;;0.73;;
19535;SDS011;9913;51.168;4.124;2022-08-01T14:25:40;1.27;;;0.70;;
19535;SDS011;9913;51.168;4.124;2022-08-01T14:28:29;2.05;;;0.90;;
19535;SDS011;9913;51.168;4.124;2022-08-01T14:30:57;2.88;;;0.90;;
19535;SDS011;9913;51.168;4.124;2022-08-01T14:33:26;1.83;;;0.80;;
19535;SDS011;9913;51.168;4.124;2022-08-01T14:35:55;0.75;;;0.60;;
19535;SDS011;9913;51.168;4.124;2022-08-01T14:38:44;2.45;;;0.82;;
19535;SDS011;9913;51.168;4.124;2022-08-01T14:41:14;2.65;;;0.77;;
19535;SDS011;9913;51.168;4.124;2022-08-01T14:43:42;1.45;;;0.73;;
19535;SDS011;9913;51.168;4.124;2022-08-01T14:46:11;1.20;;;0.60;;
19535;SDS011;9913;51.168;4.124;2022-08-01T14:48:39;1.08;;;0.80;;
19535;SDS011;9913;51.168;4.124;2022-08-01T14:51:08;1.52;;;0.95;;
19535;SDS011;9913;51.168;4.124;2022-08-01T14:53:36;1.92;;;1.05;;
19535;SDS011;9913;51.168;4.124;2022-08-01T14:56:20;1.60;;;0.60;;
19535;SDS011;9913;51.168;4.124;2022-08-01T14:58:48;1.08;;;0.75;;
19535;SDS011;9913;51.168;4.124;2022-08-01T15:01:16;2.05;;;1.10;;
19535;SDS011;9913;51.168;4.124;2022-08-01T15:03:45;1.67;;;0.80;;
19535;SDS011;9913;51.168;4.124;2022-08-01T15:06:14;1.90;;;0.80;;
19535;SDS011;9913;51.168;4.124;2022-08-01T15:08:43;2.22;;;0.90;;
19535;SDS011;9913;51.168;4.124;2022-08-01T15:11:11;2.08;;;0.95;;
19535;SDS011;9913;51.168;4.124;2022-08-01T15:13:41;1.33;;;0.80;;
19535;SDS011;9913;51.168;4.124;2022-08-01T15:16:09;2.05;;;0.80;;
19535;SDS011;9913;51.168;4.124;2022-08-01T15:18:38;0.85;;;0.70;;
19535;SDS011;9913;51.168;4.124;2022-08-01T15:21:08;1.42;;;0.60;;
19535;SDS011;9913;51.168;4.124;2022-08-01T15:23:50;1.05;;;0.70;;
19535;SDS011;9913;51.168;4.124;2022-08-01T15:26:21;1.38;;;0.73;;
19535;SDS011;9913;51.168;4.124;2022-08-01T15:28:51;1.60;;;0.70;;
19535;SDS011;9913;51.168;4.124;2022-08-01T15:31:19;1.90;;;0.70;;
19535;SDS011;9913;51.168;4.124;2022-08-01T15:33:48;2.80;;;0.93;;
19535;SDS011;9913;51.168;4.124;2022-08-01T15:36:16;2.05;;;0.80;;
19535;SDS011;9913;51.168;4.124;2022-08-01T15:38:51;1.50;;;0.70;;